Time;durP1;ratioP1;P1;durP2;ratioP2;P2;SDS_P1;SDS_P2;PMS_P1;PMS_P2;Temp;Humidity;BMP_temperature;BMP_pressure;BME280_temperature;BME280_humidity;BME280_pressure;Samples;Min_cycle;Max_cycle;Signal;HPM_P1;HPM_P2
2024/01/16 00:04:11;;;;;;;3.93;1.90;;;-2.80;1.00;;;;;;10388786;28;20242;-78
2024/01/16 00:09:35;;;;;;;4.73;1.70;;;-2.90;1.00;;;;;;10376333;28;20198;-78
2024/01/16 00:14:56;;;;;;;2.90;1.27;;;-3.00;1.00;;;;;;10347716;28;20199;-77
2024/01/16 00:20:17;;;;;;;3.67;1.50;;;-3.00;1.00;;;;;;10389345;28;20460;-77
2024/01/16 00:25:38;;;;;;;1.47;0.77;;;-3.00;1.00;;;;;;10559021;28;20222;-77
2024/01/16 00:31:00;;;;;;;3.10;1.17;;;-3.00;1.00;;;;;;10560267;28;20199;-77
2024/01/16 00:36:21;;;;;;;4.30;1.20;;;-3.00;1.00;;;;;;10545869;28;20267;-78
2024/01/16 00:41:42;;;;;;;4.07;1.87;;;-3.00;1.00;;;;;;10560793;28;20214;-78
2024/01/16 00:47:05;;;;;;;2.27;1.00;;;-3.00;1.00;;;;;;10427557;28;20209;-78
2024/01/16 00:52:27;;;;;;;4.30;1.30;;;-2.90;1.00;;;;;;10306996;28;20523;-77
2024/01/16 00:57:48;;;;;;;5.37;1.73;;;-2.80;1.00;;;;;;10308154;28;20250;-77
2024/01/16 01:03:09;;;;;;;4.77;1.97;;;-2.80;1.00;;;;;;10393036;28;20273;-77
2024/01/16 01:08:30;;;;;;;6.17;1.57;;;-2.90;1.00;;;;;;10310506;28;20198;-78
2024/01/16 01:13:51;;;;;;;2.30;1.00;;;-3.00;1.00;;;;;;10347924;28;20464;-78
2024/01/16 01:19:12;;;;;;;3.83;2.13;;;-2.90;1.00;;;;;;10360269;28;20261;-77
2024/01/16 01:24:34;;;;;;;2.50;1.10;;;-3.00;1.00;;;;;;10503314;28;20269;-77
2024/01/16 01:29:55;;;;;;;3.20;1.10;;;-3.10;1.00;;;;;;10552399;28;20419;-78
2024/01/16 01:35:19;;;;;;;3.20;1.43;;;-3.00;1.00;;;;;;10566462;28;20209;-78
2024/01/16 01:40:42;;;;;;;2.07;1.10;;;-3.10;1.00;;;;;;10567046;28;20492;-78
2024/01/16 01:46:18;;;;;;;2.10;0.97;;;-3.10;1.00;;;;;;10473801;28;20231;-77
2024/01/16 01:51:39;;;;;;;4.03;0.93;;;-3.20;1.00;;;;;;10312474;28;20205;-78
2024/01/16 01:57:02;;;;;;;2.17;0.73;;;-3.30;1.00;;;;;;10328342;28;20202;-77
2024/01/16 02:02:23;;;;;;;1.23;0.83;;;-3.30;1.00;;;;;;10312994;28;20406;-77
2024/01/16 02:07:45;;;;;;;2.33;0.80;;;-3.30;1.00;;;;;;10298163;28;20366;-78
2024/01/16 02:13:06;;;;;;;1.43;0.93;;;-3.30;1.00;;;;;;10322294;28;20198;-77
2024/01/16 02:18:27;;;;;;;2.20;0.87;;;-3.20;1.00;;;;;;10350116;28;20574;-78
2024/01/16 02:23:48;;;;;;;4.33;1.00;;;-3.30;1.00;;;;;;10485596;28;20479;-77
2024/01/16 02:29:11;;;;;;;3.50;0.97;;;-3.30;1.00;;;;;;10550121;28;20196;-77
2024/01/16 02:34:32;;;;;;;5.00;0.70;;;-3.40;1.00;;;;;;10564253;28;20502;-77
2024/01/16 02:39:53;;;;;;;3.53;1.07;;;-3.50;1.00;;;;;;10439901;28;20422;-77
2024/01/16 02:45:15;;;;;;;0.90;0.80;;;-3.60;1.00;;;;;;10377988;28;20189;-77
2024/01/16 02:50:37;;;;;;;2.20;0.73;;;-3.70;1.00;;;;;;10378085;28;20207;-77
2024/01/16 02:55:58;;;;;;;1.10;0.67;;;-3.60;1.00;;;;;;10388892;28;20189;-78
2024/01/16 03:01:20;;;;;;;2.83;1.00;;;-3.50;1.00;;;;;;10386850;28;20226;-77
2024/01/16 03:06:41;;;;;;;1.57;0.87;;;-3.60;1.00;;;;;;10390767;28;20196;-77
2024/01/16 03:12:02;;;;;;;7.60;0.90;;;-3.60;1.00;;;;;;10358396;28;20208;-77
2024/01/16 03:17:23;;;;;;;1.23;0.77;;;-3.60;1.00;;;;;;10350670;28;20519;-78
2024/01/16 03:22:45;;;;;;;1.23;0.80;;;-3.70;1.00;;;;;;10438785;28;20222;-76
2024/01/16 03:28:07;;;;;;;1.13;0.70;;;-3.70;1.00;;;;;;10472996;28;20274;-77
2024/01/16 03:33:28;;;;;;;1.40;0.80;;;-3.90;1.00;;;;;;10376271;28;20204;-76
2024/01/16 03:38:50;;;;;;;3.97;1.17;;;-3.90;1.00;;;;;;10391021;28;20230;-77
2024/01/16 03:44:11;;;;;;;2.10;0.90;;;-4.00;21.50;;;;;;10389411;28;20214;-77
2024/01/16 03:49:32;;;;;;;1.87;0.87;;;-4.10;1.00;;;;;;10390193;28;20197;-77
2024/01/16 03:54:53;;;;;;;3.03;0.80;;;-4.10;1.00;;;;;;10389470;28;20195;-77
2024/01/16 04:00:15;;;;;;;3.77;1.07;;;-4.10;26.30;;;;;;10316488;28;20222;-77
2024/01/16 04:05:36;;;;;;;1.73;1.13;;;-4.10;1.00;;;;;;10309387;28;20272;-76
2024/01/16 04:10:57;;;;;;;2.60;1.00;;;-4.10;1.00;;;;;;10347754;28;20206;-77
2024/01/16 04:16:19;;;;;;;2.00;0.80;;;-4.20;1.00;;;;;;10349110;28;20279;-77
2024/01/16 04:21:40;;;;;;;0.73;0.57;;;-4.20;1.00;;;;;;10390436;28;20222;-77
2024/01/16 04:27:01;;;;;;;2.90;0.93;;;-4.30;21.30;;;;;;10500382;28;20277;-78
2024/01/16 04:32:22;;;;;;;1.63;0.80;;;-4.30;1.00;;;;;;10374590;28;20200;-76
2024/01/16 04:37:44;;;;;;;1.80;0.77;;;-4.30;1.00;;;;;;10388000;28;20236;-77
2024/01/16 04:43:05;;;;;;;3.97;1.20;;;-4.30;1.00;;;;;;10387994;28;20217;-77
2024/01/16 04:48:26;;;;;;;2.97;1.20;;;-4.40;1.00;;;;;;10389041;28;20199;-77
2024/01/16 04:53:47;;;;;;;2.67;1.40;;;-4.50;7.80;;;;;;10387655;28;20488;-80
2024/01/16 04:59:09;;;;;;;2.93;1.20;;;-4.50;1.00;;;;;;10381198;28;20542;-79
2024/01/16 05:04:30;;;;;;;3.80;1.40;;;-4.50;1.00;;;;;;10394607;28;20201;-77
2024/01/16 05:09:52;;;;;;;1.70;0.90;;;-4.50;1.00;;;;;;10365697;28;20240;-76
2024/01/16 05:15:13;;;;;;;3.27;1.33;;;-4.50;1.00;;;;;;10354488;28;20513;-77
2024/01/16 05:20:34;;;;;;;6.20;1.73;;;-4.50;1.00;;;;;;10442154;28;20241;-77
2024/01/16 05:25:56;;;;;;;5.83;2.00;;;-4.40;1.00;;;;;;10319114;28;20229;-77
2024/01/16 05:31:19;;;;;;;5.60;2.30;;;-4.30;1.00;;;;;;10366971;28;20220;-77
2024/01/16 05:36:40;;;;;;;5.27;1.57;;;-4.30;1.00;;;;;;10353283;28;20231;-76
2024/01/16 05:42:02;;;;;;;3.50;1.90;;;-4.20;1.00;;;;;;10353073;28;20229;-77
2024/01/16 05:47:27;;;;;;;3.10;1.90;;;-4.20;1.00;;;;;;10353791;28;20198;-77
2024/01/16 05:52:48;;;;;;;4.77;2.23;;;-4.20;1.00;;;;;;10352877;28;20198;-77
2024/01/16 05:58:10;;;;;;;8.07;3.43;;;-4.20;1.00;;;;;;10332128;28;20497;-79
2024/01/16 06:03:33;;;;;;;7.70;2.90;;;-4.20;1.00;;;;;;10398672;28;20590;-77
2024/01/16 06:08:56;;;;;;;4.87;3.00;;;-4.10;1.00;;;;;;10332632;28;20496;-77
2024/01/16 06:14:21;;;;;;;4.27;2.30;;;-4.30;1.00;;;;;;10351686;28;20544;-77
2024/01/16 06:19:42;;;;;;;7.27;2.83;;;-4.40;1.00;;;;;;10352426;28;20233;-77
2024/01/16 06:25:04;;;;;;;5.83;3.10;;;-4.40;1.00;;;;;;10537270;28;20374;-78
2024/01/16 06:30:25;;;;;;;7.97;2.90;;;-4.30;1.00;;;;;;10334448;28;20382;-77
2024/01/16 06:35:46;;;;;;;4.53;2.33;;;-4.30;1.00;;;;;;10350839;28;20281;-77
2024/01/16 06:41:08;;;;;;;2.17;1.50;;;-4.30;1.00;;;;;;10352088;28;20235;-77
2024/01/16 06:46:29;;;;;;;4.47;1.70;;;-4.30;1.00;;;;;;10351868;28;20219;-77
2024/01/16 06:51:50;;;;;;;10.33;3.17;;;-4.30;1.00;;;;;;10351608;28;20187;-77
2024/01/16 06:57:11;;;;;;;7.23;3.43;;;-4.40;1.00;;;;;;10362591;28;20480;-77
2024/01/16 07:02:32;;;;;;;8.03;3.40;;;-4.30;57.80;;;;;;10336216;28;20435;-78
2024/01/16 07:07:54;;;;;;;8.47;3.90;;;-4.40;32.50;;;;;;10309879;28;20223;-77
2024/01/16 07:13:16;;;;;;;6.33;2.90;;;-4.40;86.20;;;;;;10320736;28;20199;-78
2024/01/16 07:18:39;;;;;;;7.30;2.57;;;-4.40;1.00;;;;;;10322870;28;20324;-77
2024/01/16 07:24:00;;;;;;;7.80;2.70;;;-4.40;1.00;;;;;;10477084;28;20243;-79
2024/01/16 07:29:21;;;;;;;8.97;3.07;;;-4.40;1.00;;;;;;10409314;28;20211;-83
2024/01/16 07:34:44;;;;;;;8.90;3.57;;;-4.30;1.00;;;;;;10376679;28;20233;-83
2024/01/16 07:40:06;;;;;;;14.37;4.63;;;-4.40;1.00;;;;;;10349570;28;20232;-81
2024/01/16 07:45:28;;;;;;;8.37;3.13;;;-4.30;1.00;;;;;;10348789;28;20195;-82
2024/01/16 07:50:50;;;;;;;7.60;2.90;;;-4.30;28.10;;;;;;10349821;28;20200;-79
2024/01/16 07:56:12;;;;;;;8.93;3.43;;;-4.20;1.00;;;;;;10348771;28;20280;-84
2024/01/16 08:01:34;;;;;;;36.27;16.20;;;-4.10;17.10;;;;;;10432977;28;20424;-79
2024/01/16 08:06:57;;;;;;;32.00;13.70;;;-4.20;1.00;;;;;;10321081;28;20205;-78
2024/01/16 08:12:19;;;;;;;16.90;9.23;;;-4.20;1.00;;;;;;10344028;28;20223;-80
2024/01/16 08:17:40;;;;;;;22.73;7.20;;;-4.20;1.00;;;;;;10348812;28;20234;-79
2024/01/16 08:23:04;;;;;;;17.00;6.97;;;-3.90;1.00;;;;;;10315186;28;20244;-83
2024/01/16 08:28:28;;;;;;;22.33;7.77;;;-3.50;1.00;;;;;;10345624;28;20203;-78
2024/01/16 08:33:49;;;;;;;34.67;12.27;;;-3.00;1.00;;;;;;10343877;28;20191;-79
2024/01/16 08:39:11;;;;;;;31.27;12.80;;;-2.50;1.00;;;;;;10349029;28;20202;-80
2024/01/16 08:44:32;;;;;;;40.20;18.87;;;-2.40;1.00;;;;;;10330827;28;20215;-77
2024/01/16 08:49:53;;;;;;;35.63;17.13;;;-2.00;1.00;;;;;;10349913;28;20214;-78
2024/01/16 08:55:15;;;;;;;28.23;12.87;;;-1.80;1.00;;;;;;10377603;28;20217;-80
2024/01/16 09:00:37;;;;;;;10.63;5.60;;;-1.90;1.00;;;;;;10355160;28;20233;-82
2024/01/16 09:05:58;;;;;;;9.50;4.80;;;-2.10;1.00;;;;;;10350783;28;20194;-78
2024/01/16 09:11:20;;;;;;;12.33;5.87;;;-2.00;1.00;;;;;;10348699;28;20210;-81
2024/01/16 09:16:42;;;;;;;22.53;7.23;;;-1.90;1.00;;;;;;10347992;28;20276;-79
2024/01/16 09:22:03;;;;;;;12.70;6.13;;;-2.00;1.00;;;;;;10352771;28;20524;-79
2024/01/16 09:27:24;;;;;;;8.83;4.20;;;-1.70;1.00;;;;;;10339923;28;20222;-78
2024/01/16 09:32:47;;;;;;;13.37;3.90;;;-1.70;1.00;;;;;;10348544;28;20244;-78
2024/01/16 09:38:08;;;;;;;11.93;6.97;;;-1.60;1.00;;;;;;10324544;28;20244;-77
2024/01/16 09:43:31;;;;;;;10.17;4.20;;;-1.50;1.00;;;;;;10347375;28;20237;-79
2024/01/16 09:48:56;;;;;;;8.37;4.43;;;-1.30;1.00;;;;;;10345411;28;20296;-79
2024/01/16 09:54:17;;;;;;;11.63;4.77;;;-1.00;1.00;;;;;;10330048;28;20303;-78
2024/01/16 09:59:40;;;;;;;4.57;2.33;;;-1.00;1.00;;;;;;10389112;28;20246;-78
2024/01/16 10:05:01;;;;;;;7.33;3.87;;;-0.90;1.00;;;;;;10375770;28;20225;-80
2024/01/16 10:10:22;;;;;;;7.47;3.23;;;-1.00;1.00;;;;;;10347039;28;20199;-79
2024/01/16 10:15:44;;;;;;;4.77;2.63;;;-0.70;1.00;;;;;;10346270;28;20610;-78
2024/01/16 10:21:22;;;;;;;2.40;1.53;;;-0.60;1.00;;;;;;10348964;28;20545;-80
2024/01/16 10:26:43;;;;;;;7.77;2.27;;;-0.60;1.00;;;;;;10319069;28;20230;-79
2024/01/16 10:32:08;;;;;;;10.30;4.73;;;-0.70;1.00;;;;;;10304182;28;20217;-79
2024/01/16 10:37:40;;;;;;;5.97;2.00;;;-0.70;1.00;;;;;;10372104;28;20212;-79
2024/01/16 10:43:05;;;;;;;2.53;1.53;;;-0.60;1.00;;;;;;10293070;28;20265;-81
2024/01/16 10:48:26;;;;;;;4.77;2.00;;;-0.50;1.00;;;;;;10290232;28;20201;-80
2024/01/16 10:53:48;;;;;;;5.47;2.60;;;-0.60;1.00;;;;;;10343490;28;20208;-81
2024/01/16 10:59:18;;;;;;;4.27;2.33;;;-0.50;1.00;;;;;;10501316;28;20207;-79
2024/01/16 11:04:42;;;;;;;8.27;3.53;;;-0.50;1.00;;;;;;10352885;28;20227;-79
2024/01/16 11:10:03;;;;;;;4.70;1.93;;;-0.40;1.00;;;;;;10376852;28;20250;-79
2024/01/16 11:15:25;;;;;;;4.23;2.03;;;-0.10;1.00;;;;;;10336509;28;20358;-79
2024/01/16 11:20:47;;;;;;;3.10;1.93;;;0.00;1.00;;;;;;10394413;28;20240;-78
2024/01/16 11:26:28;;;;;;;5.83;2.87;;;0.10;1.00;;;;;;10306874;28;20234;-78
2024/01/16 11:31:50;;;;;;;5.70;2.30;;;0.30;1.00;;;;;;10390243;28;20205;-77
2024/01/16 11:37:13;;;;;;;2.70;1.40;;;0.90;1.00;;;;;;10374899;28;20209;-79
2024/01/16 11:42:35;;;;;;;5.47;2.47;;;1.20;1.00;;;;;;10373911;28;20230;-81
2024/01/16 11:48:11;;;;;;;7.27;3.27;;;1.60;1.00;;;;;;10290295;28;20220;-81
2024/01/16 11:53:41;;;;;;;2.00;1.30;;;1.70;1.00;;;;;;10289743;28;20207;-80
2024/01/16 11:59:46;;;;;;;5.20;1.43;;;1.60;1.00;;;;;;10302796;28;20404;-80
2024/01/16 12:05:11;;;;;;;5.80;2.07;;;1.20;1.00;;;;;;10257824;28;20242;-79
2024/01/16 12:10:32;;;;;;;11.13;5.10;;;1.20;1.00;;;;;;10250559;28;20298;-78
2024/01/16 12:16:04;;;;;;;8.67;4.10;;;1.10;1.00;;;;;;10244951;28;20210;-78
2024/01/16 12:21:26;;;;;;;2.93;2.07;;;0.80;1.00;;;;;;10299287;28;20627;-78
2024/01/16 12:26:48;;;;;;;8.83;3.37;;;0.90;1.00;;;;;;10237793;28;20247;-77
2024/01/16 12:32:11;;;;;;;3.00;1.70;;;1.00;1.00;;;;;;10259371;28;20218;-78
2024/01/16 12:37:33;;;;;;;3.83;2.10;;;0.40;1.00;;;;;;10281016;28;20403;-77
2024/01/16 12:42:55;;;;;;;6.53;2.40;;;0.00;1.00;;;;;;10287951;28;20228;-78
2024/01/16 12:48:26;;;;;;;3.70;2.03;;;-0.30;1.00;;;;;;10303342;28;20196;-80
2024/01/16 12:53:48;;;;;;;2.57;1.40;;;-0.40;1.00;;;;;;10389006;28;20293;-77
2024/01/16 12:59:13;;;;;;;3.70;1.20;;;-0.50;1.00;;;;;;10372533;28;20200;-78
2024/01/16 13:04:34;;;;;;;5.00;1.60;;;-0.80;1.00;;;;;;10302892;28;20240;-78
2024/01/16 13:10:11;;;;;;;4.67;2.10;;;-1.00;1.00;;;;;;10365881;28;20271;-78
2024/01/16 13:15:32;;;;;;;5.13;2.40;;;-0.90;1.00;;;;;;10366699;28;20247;-77
2024/01/16 13:20:56;;;;;;;8.60;2.70;;;-0.90;1.00;;;;;;10310614;28;20262;-78
2024/01/16 13:26:17;;;;;;;15.73;6.80;;;-1.10;1.00;;;;;;10375863;28;20224;-80
2024/01/16 13:31:38;;;;;;;4.57;2.00;;;-1.30;1.00;;;;;;10308085;28;20196;-79
2024/01/16 13:37:04;;;;;;;1.87;1.50;;;-1.50;1.00;;;;;;10307257;28;20200;-77
2024/01/16 13:42:28;;;;;;;2.93;1.40;;;-1.70;1.00;;;;;;10306968;28;20222;-79
2024/01/16 13:47:49;;;;;;;4.07;1.50;;;-1.80;1.00;;;;;;10308051;28;20191;-77
2024/01/16 13:53:13;;;;;;;3.73;2.23;;;-1.90;1.00;;;;;;10306976;28;20260;-77
2024/01/16 13:58:35;;;;;;;4.43;2.47;;;-2.00;1.00;;;;;;10293603;28;20258;-77
2024/01/16 14:03:56;;;;;;;4.23;2.40;;;-2.00;1.00;;;;;;10308310;28;20280;-77
2024/01/16 14:09:19;;;;;;;10.97;5.00;;;-2.10;1.00;;;;;;10305603;28;20369;-77
2024/01/16 14:14:41;;;;;;;3.57;2.03;;;-2.00;1.00;;;;;;10373517;28;20230;-78
2024/01/16 14:20:05;;;;;;;2.43;1.53;;;-2.10;1.00;;;;;;10373480;28;20285;-77
2024/01/16 14:25:26;;;;;;;3.27;1.60;;;-2.10;1.00;;;;;;10410513;28;20257;-80
2024/01/16 14:30:50;;;;;;;1.97;1.50;;;-2.00;1.00;;;;;;10306587;28;20461;-79
2024/01/16 14:36:12;;;;;;;4.67;1.90;;;-2.10;1.00;;;;;;10315399;28;20256;-80
2024/01/16 14:41:34;;;;;;;4.23;2.90;;;-2.20;1.00;;;;;;10295493;28;20284;-78
2024/01/16 14:46:55;;;;;;;2.83;2.10;;;-2.30;1.00;;;;;;10339231;28;20282;-77
2024/01/16 14:52:18;;;;;;;2.90;1.80;;;-2.40;1.00;;;;;;10390340;28;20241;-82
2024/01/16 14:57:44;;;;;;;4.73;2.20;;;-2.50;1.00;;;;;;10310248;28;20198;-81
2024/01/16 15:03:05;;;;;;;3.33;1.90;;;-2.50;1.00;;;;;;10356270;28;20268;-80
2024/01/16 15:08:28;;;;;;;3.57;2.40;;;-2.50;1.00;;;;;;10338946;28;20192;-79
2024/01/16 15:13:49;;;;;;;3.73;2.93;;;-2.60;1.00;;;;;;10340449;28;20288;-83
2024/01/16 15:19:11;;;;;;;5.47;2.40;;;-2.70;1.00;;;;;;10365611;28;20247;-81
2024/01/16 15:24:32;;;;;;;5.70;3.33;;;-2.80;1.00;;;;;;10356467;28;20252;-79
2024/01/16 15:29:55;;;;;;;12.33;4.40;;;-2.90;1.00;;;;;;10294079;28;20273;-80
2024/01/16 15:35:17;;;;;;;18.33;7.93;;;-3.00;1.00;;;;;;10407507;28;20545;-82
2024/01/16 15:40:38;;;;;;;22.47;9.57;;;-3.00;1.00;;;;;;10304817;28;20252;-81
2024/01/16 15:46:00;;;;;;;19.93;8.97;;;-3.10;1.00;;;;;;10370941;28;20202;-80
2024/01/16 15:51:23;;;;;;;23.80;9.47;;;-3.20;1.00;;;;;;10402728;28;20275;-78
2024/01/16 15:56:44;;;;;;;26.00;14.23;;;-3.30;1.00;;;;;;10294460;28;20200;-79
2024/01/16 16:02:06;;;;;;;28.33;13.37;;;-3.30;1.00;;;;;;10348078;28;20245;-80
2024/01/16 16:07:27;;;;;;;147.10;52.50;;;-3.50;1.00;;;;;;10404509;28;20558;-81
2024/01/16 16:12:48;;;;;;;399.27;155.20;;;-3.70;1.00;;;;;;10293027;28;20385;-81
2024/01/16 16:18:10;;;;;;;174.73;71.70;;;-3.90;1.00;;;;;;10305384;28;20233;-80
2024/01/16 16:23:31;;;;;;;201.73;78.40;;;-4.10;1.00;;;;;;10514046;28;20269;-80
2024/01/16 16:28:57;;;;;;;261.30;98.13;;;-4.20;1.00;;;;;;10482163;28;20195;-79
2024/01/16 16:34:19;;;;;;;278.17;102.17;;;-4.30;1.00;;;;;;10293059;28;20199;-80
2024/01/16 16:39:40;;;;;;;344.63;117.37;;;-4.50;1.00;;;;;;10281574;28;20278;-80
2024/01/16 16:45:01;;;;;;;430.23;147.37;;;-4.50;1.00;;;;;;10280924;28;20397;-80
2024/01/16 16:50:23;;;;;;;389.67;136.77;;;-4.70;1.00;;;;;;10354283;28;20222;-80
2024/01/16 16:55:45;;;;;;;395.43;140.87;;;-4.80;1.00;;;;;;10368619;28;20246;-80
2024/01/16 17:01:09;;;;;;;399.10;142.03;;;-4.80;1.00;;;;;;10287163;28;20230;-80
2024/01/16 17:06:30;;;;;;;381.87;138.27;;;-4.90;1.00;;;;;;10398072;28;20236;-81
2024/01/16 17:11:55;;;;;;;518.80;182.47;;;-5.00;1.00;;;;;;10384020;28;20209;-80
2024/01/16 17:17:17;;;;;;;565.73;221.63;;;-5.00;1.00;;;;;;10330487;28;20238;-80
2024/01/16 17:22:40;;;;;;;513.73;218.33;;;-5.10;1.00;;;;;;10409548;28;20224;-80
2024/01/16 17:28:06;;;;;;;531.40;220.10;;;-5.30;1.00;;;;;;10511323;28;20202;-79
2024/01/16 17:33:28;;;;;;;277.23;115.27;;;-5.30;1.00;;;;;;10485467;28;20594;-79
2024/01/16 17:38:55;;;;;;;168.07;66.53;;;-5.40;1.00;;;;;;10377484;28;20200;-79
2024/01/16 17:44:18;;;;;;;129.63;53.20;;;-5.40;1.00;;;;;;10369042;28;20254;-79
2024/01/16 17:49:39;;;;;;;175.53;67.67;;;-5.50;1.00;;;;;;10400492;28;20245;-79
2024/01/16 17:55:02;;;;;;;273.87;107.07;;;-5.50;1.00;;;;;;10369267;28;20234;-80
2024/01/16 18:00:26;;;;;;;310.27;121.67;;;-5.60;1.00;;;;;;10399765;28;20209;-80
2024/01/16 18:05:49;;;;;;;346.00;129.67;;;-5.70;1.00;;;;;;10351640;28;20503;-80
2024/01/16 18:11:12;;;;;;;297.77;111.83;;;-5.70;1.00;;;;;;10398268;28;20198;-80
2024/01/16 18:16:36;;;;;;;324.60;109.07;;;-5.80;1.00;;;;;;10330520;28;20379;-81
2024/01/16 18:21:57;;;;;;;374.43;116.63;;;-5.80;1.00;;;;;;10383035;28;20218;-81
2024/01/16 18:27:18;;;;;;;311.77;109.80;;;-6.00;1.00;;;;;;10522559;28;20205;-81
2024/01/16 18:32:43;;;;;;;308.57;117.77;;;-6.10;1.00;;;;;;10522878;28;20223;-80
2024/01/16 18:38:07;;;;;;;366.97;133.13;;;-6.10;1.00;;;;;;10365301;28;20204;-80
2024/01/16 18:43:29;;;;;;;372.00;141.17;;;-6.10;1.00;;;;;;10324257;28;20257;-81
2024/01/16 18:48:51;;;;;;;429.90;150.53;;;-6.10;1.00;;;;;;10337826;28;20292;-81
2024/01/16 18:54:12;;;;;;;442.10;163.93;;;-6.20;1.00;;;;;;10329368;28;20209;-80
2024/01/16 18:59:33;;;;;;;533.93;193.97;;;-6.10;1.00;;;;;;10397846;28;20498;-81
2024/01/16 19:04:55;;;;;;;785.87;282.33;;;-6.30;1.00;;;;;;10399324;28;20238;-81
2024/01/16 19:10:16;;;;;;;696.20;252.50;;;-6.10;1.00;;;;;;10306508;28;20511;-81
2024/01/16 19:15:37;;;;;;;676.27;232.60;;;-6.40;1.00;;;;;;10381239;28;20209;-81
2024/01/16 19:21:03;;;;;;;608.17;207.67;;;-6.70;1.00;;;;;;10320427;28;20269;-81
2024/01/16 19:26:27;;;;;;;597.80;184.43;;;-6.60;1.00;;;;;;10519940;28;20659;-80
2024/01/16 19:31:51;;;;;;;366.00;128.67;;;-6.70;1.00;;;;;;10506243;28;20202;-80
2024/01/16 19:37:14;;;;;;;352.63;128.90;;;-6.70;1.00;;;;;;10347212;28;20203;-81
2024/01/16 19:42:36;;;;;;;420.53;157.17;;;-6.80;1.00;;;;;;10384304;28;20269;-80
2024/01/16 19:47:58;;;;;;;444.70;167.60;;;-6.80;1.00;;;;;;10354258;28;20203;-81
2024/01/16 19:53:19;;;;;;;395.90;142.83;;;-6.70;1.00;;;;;;10371280;28;20207;-81
2024/01/16 19:58:40;;;;;;;404.43;142.13;;;-6.70;1.00;;;;;;10269258;28;20248;-81
2024/01/16 20:04:02;;;;;;;380.07;139.07;;;-6.70;1.00;;;;;;10283329;28;20222;-81
2024/01/16 20:09:24;;;;;;;399.60;142.33;;;-6.70;1.00;;;;;;10294779;28;20199;-81
2024/01/16 20:14:45;;;;;;;375.53;134.57;;;-6.70;1.00;;;;;;10295219;28;20226;-81
2024/01/16 20:20:09;;;;;;;343.50;127.67;;;-6.60;1.00;;;;;;10395210;28;20292;-81
2024/01/16 20:25:30;;;;;;;309.00;112.77;;;-6.60;1.00;;;;;;10292216;28;20227;-80
2024/01/16 20:30:51;;;;;;;330.73;120.83;;;-6.50;1.00;;;;;;10281530;28;20199;-81
2024/01/16 20:36:13;;;;;;;322.57;124.47;;;-6.60;1.00;;;;;;10281271;28;20202;-80
2024/01/16 20:41:35;;;;;;;281.67;104.23;;;-6.50;1.00;;;;;;10356815;28;20413;-80
2024/01/16 20:46:56;;;;;;;254.87;99.03;;;-6.40;1.00;;;;;;10357000;28;20413;-81
2024/01/16 20:52:18;;;;;;;254.23;100.20;;;-6.40;1.00;;;;;;10289760;28;20532;-81
2024/01/16 20:57:39;;;;;;;241.63;96.97;;;-6.50;1.00;;;;;;10281508;28;20198;-80
2024/01/16 21:03:06;;;;;;;211.33;86.20;;;-6.50;1.00;;;;;;10287578;28;20263;-81
2024/01/16 21:08:30;;;;;;;208.87;85.13;;;-6.60;1.00;;;;;;10293206;28;20575;-81
2024/01/16 21:13:52;;;;;;;232.30;92.50;;;-6.70;1.00;;;;;;10394267;28;20222;-81
2024/01/16 21:19:21;;;;;;;248.63;98.47;;;-6.70;1.00;;;;;;10325420;28;20502;-81
2024/01/16 21:24:42;;;;;;;253.70;97.63;;;-6.70;1.00;;;;;;10312661;28;20232;-82
2024/01/16 21:30:05;;;;;;;229.13;94.30;;;-6.70;1.00;;;;;;10280395;28;20196;-81
2024/01/16 21:35:27;;;;;;;236.97;88.90;;;-6.60;1.00;;;;;;10336845;28;20205;-81
2024/01/16 21:40:50;;;;;;;239.10;87.10;;;-6.70;1.00;;;;;;10367233;28;20210;-81
2024/01/16 21:46:12;;;;;;;227.13;89.70;;;-6.70;1.00;;;;;;10360130;28;20202;-81
2024/01/16 21:51:33;;;;;;;238.40;94.73;;;-6.80;1.00;;;;;;10363307;28;20444;-80
2024/01/16 21:56:55;;;;;;;281.70;104.13;;;-6.80;1.00;;;;;;10343887;28;20196;-81
2024/01/16 22:02:17;;;;;;;290.20;110.83;;;-6.90;1.00;;;;;;10273034;28;20226;-80
2024/01/16 22:07:38;;;;;;;321.90;118.10;;;-6.80;1.00;;;;;;10298980;28;20221;-80
2024/01/16 22:12:59;;;;;;;295.77;109.00;;;-6.90;1.00;;;;;;10276315;28;20196;-80
2024/01/16 22:18:21;;;;;;;269.23;101.87;;;-6.70;1.00;;;;;;10311807;28;20258;-80
2024/01/16 22:23:42;;;;;;;219.33;87.37;;;-6.60;1.00;;;;;;10298626;28;20226;-80
2024/01/16 22:29:03;;;;;;;222.60;78.40;;;-6.50;1.00;;;;;;10362557;28;20200;-80
2024/01/16 22:34:27;;;;;;;215.87;78.20;;;-6.50;1.00;;;;;;10354176;28;20213;-81
2024/01/16 22:39:51;;;;;;;199.87;72.73;;;-6.40;1.00;;;;;;10372433;28;20200;-81
2024/01/16 22:45:12;;;;;;;181.60;68.33;;;-6.20;1.00;;;;;;10370560;28;20228;-80
2024/01/16 22:50:34;;;;;;;170.63;61.60;;;-6.20;1.00;;;;;;10360516;28;20234;-80
2024/01/16 22:55:55;;;;;;;168.90;61.47;;;-6.20;1.00;;;;;;10339771;28;20290;-80
2024/01/16 23:01:18;;;;;;;150.53;57.50;;;-6.10;1.00;;;;;;10398235;28;20275;-80
2024/01/16 23:06:41;;;;;;;123.37;49.50;;;-6.10;26.40;;;;;;10382032;28;20249;-80
2024/01/16 23:12:02;;;;;;;106.40;44.50;;;-5.90;8.60;;;;;;10371121;28;20461;-80
2024/01/16 23:17:24;;;;;;;102.37;41.43;;;-5.80;1.00;;;;;;10305900;28;20254;-80
2024/01/16 23:22:46;;;;;;;101.33;40.20;;;-5.70;33.90;;;;;;10410314;28;20389;-80
2024/01/16 23:28:09;;;;;;;93.20;37.00;;;-5.70;20.50;;;;;;10485569;28;20270;-80
2024/01/16 23:33:30;;;;;;;88.77;37.37;;;-5.60;32.00;;;;;;10380058;28;20283;-80
2024/01/16 23:38:52;;;;;;;101.17;39.40;;;-5.50;59.90;;;;;;10426356;28;20191;-80
2024/01/16 23:44:14;;;;;;;86.17;36.00;;;-5.40;1.00;;;;;;10505295;28;20228;-80
2024/01/16 23:49:37;;;;;;;81.90;33.07;;;-5.30;12.60;;;;;;10505178;28;20242;-81
2024/01/16 23:55:00;;;;;;;87.60;34.53;;;-5.20;99.90;;;;;;10353371;28;20205;-80
